sensor_id;sensor_type;location;lat;lon;timestamp;P1;durP1;ratioP1;P2;durP2;ratioP2
4911;SDS011;2471;47.056;8.350;2022-07-24T00:01:31;21.03;;;18.43;;
4911;SDS011;2471;47.056;8.350;2022-07-24T00:03:57;28.30;;;19.70;;
4911;SDS011;2471;47.056;8.350;2022-07-24T00:06:23;33.73;;;21.10;;
4911;SDS011;2471;47.056;8.350;2022-07-24T00:08:49;27.10;;;20.83;;
4911;SDS011;2471;47.056;8.350;2022-07-24T00:11:15;28.83;;;19.60;;
4911;SDS011;2471;47.056;8.350;2022-07-24T00:13:41;24.83;;;20.60;;
4911;SDS011;2471;47.056;8.350;2022-07-24T00:16:07;29.43;;;23.87;;
4911;SDS011;2471;47.056;8.350;2022-07-24T00:18:33;29.93;;;21.00;;
4911;SDS011;2471;47.056;8.350;2022-07-24T00:20:59;29.63;;;21.90;;
4911;SDS011;2471;47.056;8.350;2022-07-24T00:23:25;25.80;;;20.93;;
4911;SDS011;2471;47.056;8.350;2022-07-24T00:25:52;25.67;;;21.87;;
4911;SDS011;2471;47.056;8.350;2022-07-24T00:28:18;26.00;;;19.70;;
4911;SDS011;2471;47.056;8.350;2022-07-24T00:30:44;28.90;;;21.30;;
4911;SDS011;2471;47.056;8.350;2022-07-24T00:33:10;34.20;;;22.70;;
4911;SDS011;2471;47.056;8.350;2022-07-24T00:35:36;28.97;;;19.43;;
4911;SDS011;2471;47.056;8.350;2022-07-24T00:38:02;25.37;;;20.77;;
4911;SDS011;2471;47.056;8.350;2022-07-24T00:40:29;27.90;;;20.53;;
4911;SDS011;2471;47.056;8.350;2022-07-24T00:42:56;24.90;;;20.37;;
4911;SDS011;2471;47.056;8.350;2022-07-24T00:45:22;27.70;;;20.00;;
4911;SDS011;2471;47.056;8.350;2022-07-24T00:47:49;22.97;;;19.20;;
4911;SDS011;2471;47.056;8.350;2022-07-24T00:50:15;24.17;;;20.47;;
4911;SDS011;2471;47.056;8.350;2022-07-24T00:52:41;25.50;;;19.30;;
4911;SDS011;2471;47.056;8.350;2022-07-24T00:55:08;28.03;;;20.70;;
4911;SDS011;2471;47.056;8.350;2022-07-24T00:57:34;25.00;;;21.03;;
4911;SDS011;2471;47.056;8.350;2022-07-24T01:00:00;28.07;;;22.03;;
4911;SDS011;2471;47.056;8.350;2022-07-24T01:02:26;23.33;;;20.07;;
4911;SDS011;2471;47.056;8.350;2022-07-24T01:04:52;25.87;;;19.30;;
4911;SDS011;2471;47.056;8.350;2022-07-24T01:07:18;21.73;;;19.13;;
4911;SDS011;2471;47.056;8.350;2022-07-24T01:09:44;23.13;;;18.67;;
4911;SDS011;2471;47.056;8.350;2022-07-24T01:12:10;25.67;;;18.80;;
4911;SDS011;2471;47.056;8.350;2022-07-24T01:14:36;24.03;;;18.87;;
4911;SDS011;2471;47.056;8.350;2022-07-24T01:17:03;23.37;;;19.43;;
4911;SDS011;2471;47.056;8.350;2022-07-24T01:19:29;27.70;;;21.70;;
4911;SDS011;2471;47.056;8.350;2022-07-24T01:21:55;26.90;;;21.70;;
4911;SDS011;2471;47.056;8.350;2022-07-24T01:24:21;28.63;;;21.80;;
4911;SDS011;2471;47.056;8.350;2022-07-24T01:26:47;29.37;;;23.57;;
4911;SDS011;2471;47.056;8.350;2022-07-24T01:29:14;27.73;;;21.17;;
4911;SDS011;2471;47.056;8.350;2022-07-24T01:31:40;26.23;;;21.00;;
4911;SDS011;2471;47.056;8.350;2022-07-24T01:34:06;29.00;;;20.23;;
4911;SDS011;2471;47.056;8.350;2022-07-24T01:36:32;24.73;;;21.27;;
4911;SDS011;2471;47.056;8.350;2022-07-24T01:38:58;23.03;;;20.50;;
4911;SDS011;2471;47.056;8.350;2022-07-24T01:41:24;30.20;;;21.87;;
4911;SDS011;2471;47.056;8.350;2022-07-24T01:43:50;29.80;;;21.93;;
4911;SDS011;2471;47.056;8.350;2022-07-24T01:46:16;25.43;;;20.83;;
4911;SDS011;2471;47.056;8.350;2022-07-24T01:48:42;25.57;;;21.20;;
4911;SDS011;2471;47.056;8.350;2022-07-24T01:51:08;25.80;;;22.60;;
4911;SDS011;2471;47.056;8.350;2022-07-24T01:53:35;25.87;;;21.80;;
4911;SDS011;2471;47.056;8.350;2022-07-24T01:56:01;25.60;;;20.47;;
4911;SDS011;2471;47.056;8.350;2022-07-24T01:58:27;27.90;;;21.83;;
4911;SDS011;2471;47.056;8.350;2022-07-24T02:00:53;25.27;;;21.30;;
4911;SDS011;2471;47.056;8.350;2022-07-24T02:03:20;24.63;;;20.53;;
4911;SDS011;2471;47.056;8.350;2022-07-24T02:05:46;28.30;;;19.63;;
4911;SDS011;2471;47.056;8.350;2022-07-24T02:08:12;26.83;;;20.00;;
4911;SDS011;2471;47.056;8.350;2022-07-24T02:10:38;29.37;;;20.10;;
4911;SDS011;2471;47.056;8.350;2022-07-24T02:13:05;25.27;;;21.20;;
4911;SDS011;2471;47.056;8.350;2022-07-24T02:15:31;26.90;;;20.20;;
4911;SDS011;2471;47.056;8.350;2022-07-24T02:17:58;32.73;;;19.97;;
4911;SDS011;2471;47.056;8.350;2022-07-24T02:20:25;27.00;;;21.17;;
4911;SDS011;2471;47.056;8.350;2022-07-24T02:22:51;27.40;;;20.00;;
4911;SDS011;2471;47.056;8.350;2022-07-24T02:25:17;26.73;;;21.50;;
4911;SDS011;2471;47.056;8.350;2022-07-24T02:27:43;28.40;;;21.03;;
4911;SDS011;2471;47.056;8.350;2022-07-24T02:30:10;31.73;;;21.40;;
4911;SDS011;2471;47.056;8.350;2022-07-24T02:32:37;23.90;;;20.53;;
4911;SDS011;2471;47.056;8.350;2022-07-24T02:35:03;22.67;;;20.00;;
4911;SDS011;2471;47.056;8.350;2022-07-24T02:37:29;34.47;;;22.73;;
4911;SDS011;2471;47.056;8.350;2022-07-24T02:39:55;29.47;;;22.90;;
4911;SDS011;2471;47.056;8.350;2022-07-24T02:42:21;28.60;;;22.57;;
4911;SDS011;2471;47.056;8.350;2022-07-24T02:44:47;32.17;;;25.13;;
4911;SDS011;2471;47.056;8.350;2022-07-24T02:47:13;30.50;;;24.13;;
4911;SDS011;2471;47.056;8.350;2022-07-24T02:49:39;30.10;;;23.83;;
4911;SDS011;2471;47.056;8.350;2022-07-24T02:52:05;27.70;;;22.43;;
4911;SDS011;2471;47.056;8.350;2022-07-24T02:54:31;27.57;;;23.67;;
4911;SDS011;2471;47.056;8.350;2022-07-24T02:56:57;27.10;;;22.87;;
4911;SDS011;2471;47.056;8.350;2022-07-24T02:59:23;29.90;;;22.40;;
4911;SDS011;2471;47.056;8.350;2022-07-24T03:01:49;29.83;;;23.70;;
4911;SDS011;2471;47.056;8.350;2022-07-24T03:04:15;31.30;;;24.87;;
4911;SDS011;2471;47.056;8.350;2022-07-24T03:06:41;26.40;;;22.57;;
4911;SDS011;2471;47.056;8.350;2022-07-24T03:09:07;26.63;;;22.03;;
4911;SDS011;2471;47.056;8.350;2022-07-24T03:11:33;32.77;;;22.67;;
4911;SDS011;2471;47.056;8.350;2022-07-24T03:13:59;27.47;;;21.23;;
4911;SDS011;2471;47.056;8.350;2022-07-24T03:16:25;26.30;;;20.17;;
4911;SDS011;2471;47.056;8.350;2022-07-24T03:18:51;25.73;;;21.30;;
4911;SDS011;2471;47.056;8.350;2022-07-24T03:21:17;26.70;;;22.40;;
4911;SDS011;2471;47.056;8.350;2022-07-24T03:23:44;27.90;;;22.30;;
4911;SDS011;2471;47.056;8.350;2022-07-24T03:26:10;26.50;;;20.53;;
4911;SDS011;2471;47.056;8.350;2022-07-24T03:28:36;29.87;;;20.30;;
4911;SDS011;2471;47.056;8.350;2022-07-24T03:31:02;27.30;;;22.27;;
4911;SDS011;2471;47.056;8.350;2022-07-24T03:33:28;31.53;;;23.37;;
4911;SDS011;2471;47.056;8.350;2022-07-24T03:35:54;28.07;;;23.10;;
4911;SDS011;2471;47.056;8.350;2022-07-24T03:38:20;32.20;;;22.63;;
4911;SDS011;2471;47.056;8.350;2022-07-24T03:40:47;30.97;;;20.60;;
4911;SDS011;2471;47.056;8.350;2022-07-24T03:43:12;26.80;;;22.90;;
4911;SDS011;2471;47.056;8.350;2022-07-24T03:45:39;43.60;;;28.90;;
4911;SDS011;2471;47.056;8.350;2022-07-24T03:48:05;56.23;;;37.93;;
4911;SDS011;2471;47.056;8.350;2022-07-24T03:50:31;64.57;;;39.87;;
4911;SDS011;2471;47.056;8.350;2022-07-24T03:52:57;56.20;;;35.97;;
4911;SDS011;2471;47.056;8.350;2022-07-24T03:55:23;44.77;;;32.27;;
4911;SDS011;2471;47.056;8.350;2022-07-24T03:57:49;60.73;;;35.17;;
4911;SDS011;2471;47.056;8.350;2022-07-24T04:00:15;60.40;;;37.73;;
4911;SDS011;2471;47.056;8.350;2022-07-24T04:02:41;56.90;;;33.20;;
4911;SDS011;2471;47.056;8.350;2022-07-24T04:05:08;46.10;;;31.40;;
4911;SDS011;2471;47.056;8.350;2022-07-24T04:07:35;38.00;;;27.83;;
4911;SDS011;2471;47.056;8.350;2022-07-24T04:10:01;36.23;;;25.33;;
4911;SDS011;2471;47.056;8.350;2022-07-24T04:12:27;41.80;;;24.07;;
4911;SDS011;2471;47.056;8.350;2022-07-24T04:14:53;29.40;;;22.97;;
4911;SDS011;2471;47.056;8.350;2022-07-24T04:17:19;27.33;;;22.80;;
4911;SDS011;2471;47.056;8.350;2022-07-24T04:19:45;29.27;;;21.53;;
4911;SDS011;2471;47.056;8.350;2022-07-24T04:22:11;31.83;;;21.37;;
4911;SDS011;2471;47.056;8.350;2022-07-24T04:24:37;29.10;;;22.80;;
4911;SDS011;2471;47.056;8.350;2022-07-24T04:27:03;25.87;;;22.10;;
4911;SDS011;2471;47.056;8.350;2022-07-24T04:29:29;22.80;;;20.30;;
4911;SDS011;2471;47.056;8.350;2022-07-24T04:31:55;27.50;;;20.93;;
4911;SDS011;2471;47.056;8.350;2022-07-24T04:34:21;22.60;;;18.80;;
4911;SDS011;2471;47.056;8.350;2022-07-24T04:36:47;28.43;;;21.03;;
4911;SDS011;2471;47.056;8.350;2022-07-24T04:39:13;30.30;;;21.43;;
4911;SDS011;2471;47.056;8.350;2022-07-24T04:41:39;33.80;;;23.47;;
4911;SDS011;2471;47.056;8.350;2022-07-24T04:44:05;25.60;;;21.23;;
4911;SDS011;2471;47.056;8.350;2022-07-24T04:46:31;26.97;;;20.60;;
4911;SDS011;2471;47.056;8.350;2022-07-24T04:48:57;24.60;;;19.70;;
4911;SDS011;2471;47.056;8.350;2022-07-24T04:51:23;42.60;;;21.40;;
4911;SDS011;2471;47.056;8.350;2022-07-24T04:53:49;25.70;;;22.13;;
4911;SDS011;2471;47.056;8.350;2022-07-24T04:56:18;24.80;;;22.10;;
4911;SDS011;2471;47.056;8.350;2022-07-24T04:58:44;34.93;;;21.87;;
4911;SDS011;2471;47.056;8.350;2022-07-24T05:01:10;24.00;;;21.10;;
4911;SDS011;2471;47.056;8.350;2022-07-24T05:03:36;27.17;;;21.43;;
4911;SDS011;2471;47.056;8.350;2022-07-24T05:06:02;25.30;;;21.67;;
4911;SDS011;2471;47.056;8.350;2022-07-24T05:08:28;24.63;;;21.03;;
4911;SDS011;2471;47.056;8.350;2022-07-24T05:10:54;27.37;;;23.07;;
4911;SDS011;2471;47.056;8.350;2022-07-24T05:13:20;27.03;;;21.80;;
4911;SDS011;2471;47.056;8.350;2022-07-24T05:15:46;28.80;;;21.53;;
4911;SDS011;2471;47.056;8.350;2022-07-24T05:18:12;27.20;;;20.93;;
4911;SDS011;2471;47.056;8.350;2022-07-24T05:20:38;24.27;;;21.67;;
4911;SDS011;2471;47.056;8.350;2022-07-24T05:23:04;23.47;;;20.97;;
4911;SDS011;2471;47.056;8.350;2022-07-24T05:25:30;25.17;;;21.80;;
4911;SDS011;2471;47.056;8.350;2022-07-24T05:27:56;33.20;;;21.07;;
4911;SDS011;2471;47.056;8.350;2022-07-24T05:30:22;23.47;;;20.90;;
4911;SDS011;2471;47.056;8.350;2022-07-24T05:32:48;29.13;;;22.53;;
4911;SDS011;2471;47.056;8.350;2022-07-24T05:35:14;26.53;;;20.40;;
4911;SDS011;2471;47.056;8.350;2022-07-24T05:37:40;28.43;;;20.77;;
4911;SDS011;2471;47.056;8.350;2022-07-24T05:40:06;23.70;;;20.37;;
4911;SDS011;2471;47.056;8.350;2022-07-24T05:42:32;23.13;;;19.37;;
4911;SDS011;2471;47.056;8.350;2022-07-24T05:44:58;19.90;;;17.77;;
4911;SDS011;2471;47.056;8.350;2022-07-24T05:47:24;22.57;;;19.50;;
4911;SDS011;2471;47.056;8.350;2022-07-24T05:49:50;26.63;;;19.07;;
4911;SDS011;2471;47.056;8.350;2022-07-24T05:52:16;20.03;;;17.60;;
4911;SDS011;2471;47.056;8.350;2022-07-24T05:54:42;25.57;;;17.73;;
4911;SDS011;2471;47.056;8.350;2022-07-24T05:57:08;19.40;;;17.30;;
4911;SDS011;2471;47.056;8.350;2022-07-24T05:59:34;26.30;;;18.03;;
4911;SDS011;2471;47.056;8.350;2022-07-24T06:02:00;19.00;;;17.00;;
4911;SDS011;2471;47.056;8.350;2022-07-24T06:04:29;20.83;;;17.50;;
4911;SDS011;2471;47.056;8.350;2022-07-24T06:06:55;22.60;;;18.47;;
4911;SDS011;2471;47.056;8.350;2022-07-24T06:09:21;21.63;;;18.90;;
4911;SDS011;2471;47.056;8.350;2022-07-24T06:11:46;20.20;;;17.63;;
4911;SDS011;2471;47.056;8.350;2022-07-24T06:14:12;22.93;;;18.53;;
4911;SDS011;2471;47.056;8.350;2022-07-24T06:16:41;24.43;;;20.30;;
4911;SDS011;2471;47.056;8.350;2022-07-24T06:19:07;27.33;;;18.83;;
4911;SDS011;2471;47.056;8.350;2022-07-24T06:21:33;23.37;;;18.50;;
4911;SDS011;2471;47.056;8.350;2022-07-24T06:23:59;22.30;;;19.40;;
4911;SDS011;2471;47.056;8.350;2022-07-24T06:26:25;39.10;;;20.37;;
4911;SDS011;2471;47.056;8.350;2022-07-24T06:28:51;22.33;;;18.23;;
4911;SDS011;2471;47.056;8.350;2022-07-24T06:31:17;25.53;;;17.73;;
4911;SDS011;2471;47.056;8.350;2022-07-24T06:33:43;19.90;;;17.83;;
4911;SDS011;2471;47.056;8.350;2022-07-24T06:36:09;18.83;;;16.93;;
4911;SDS011;2471;47.056;8.350;2022-07-24T06:38:35;23.63;;;19.30;;
4911;SDS011;2471;47.056;8.350;2022-07-24T06:41:01;20.80;;;17.67;;
4911;SDS011;2471;47.056;8.350;2022-07-24T06:43:27;19.20;;;17.17;;
4911;SDS011;2471;47.056;8.350;2022-07-24T06:45:53;19.13;;;17.13;;
4911;SDS011;2471;47.056;8.350;2022-07-24T06:48:19;20.20;;;16.87;;
4911;SDS011;2471;47.056;8.350;2022-07-24T06:50:45;19.73;;;17.23;;
4911;SDS011;2471;47.056;8.350;2022-07-24T06:53:11;19.80;;;17.33;;
4911;SDS011;2471;47.056;8.350;2022-07-24T06:55:37;25.77;;;19.00;;
4911;SDS011;2471;47.056;8.350;2022-07-24T06:58:03;21.40;;;18.30;;
4911;SDS011;2471;47.056;8.350;2022-07-24T07:00:29;19.73;;;17.57;;
4911;SDS011;2471;47.056;8.350;2022-07-24T07:02:55;20.87;;;18.67;;
4911;SDS011;2471;47.056;8.350;2022-07-24T07:05:21;28.20;;;19.30;;
4911;SDS011;2471;47.056;8.350;2022-07-24T07:07:49;25.53;;;18.00;;
4911;SDS011;2471;47.056;8.350;2022-07-24T07:10:15;16.10;;;14.43;;
4911;SDS011;2471;47.056;8.350;2022-07-24T07:12:41;18.77;;;16.63;;
4911;SDS011;2471;47.056;8.350;2022-07-24T07:15:08;22.30;;;19.27;;
4911;SDS011;2471;47.056;8.350;2022-07-24T07:17:36;18.20;;;16.10;;
4911;SDS011;2471;47.056;8.350;2022-07-24T07:20:02;21.23;;;16.40;;
4911;SDS011;2471;47.056;8.350;2022-07-24T07:22:28;24.47;;;15.23;;
4911;SDS011;2471;47.056;8.350;2022-07-24T07:24:54;16.17;;;14.47;;
4911;SDS011;2471;47.056;8.350;2022-07-24T07:27:20;21.00;;;15.80;;
4911;SDS011;2471;47.056;8.350;2022-07-24T07:29:46;17.23;;;15.20;;
4911;SDS011;2471;47.056;8.350;2022-07-24T07:32:12;15.93;;;13.67;;
4911;SDS011;2471;47.056;8.350;2022-07-24T07:34:38;15.77;;;14.10;;
4911;SDS011;2471;47.056;8.350;2022-07-24T07:37:04;18.83;;;14.10;;
4911;SDS011;2471;47.056;8.350;2022-07-24T07:39:30;20.80;;;15.60;;
4911;SDS011;2471;47.056;8.350;2022-07-24T07:41:56;18.93;;;15.00;;
4911;SDS011;2471;47.056;8.350;2022-07-24T07:44:22;23.47;;;16.20;;
4911;SDS011;2471;47.056;8.350;2022-07-24T07:46:48;22.33;;;18.73;;
4911;SDS011;2471;47.056;8.350;2022-07-24T07:49:14;17.17;;;15.07;;
4911;SDS011;2471;47.056;8.350;2022-07-24T07:51:40;16.40;;;14.80;;
4911;SDS011;2471;47.056;8.350;2022-07-24T07:54:06;18.47;;;15.40;;
4911;SDS011;2471;47.056;8.350;2022-07-24T07:56:32;21.43;;;15.03;;
4911;SDS011;2471;47.056;8.350;2022-07-24T07:58:58;26.63;;;17.13;;
4911;SDS011;2471;47.056;8.350;2022-07-24T08:01:24;18.10;;;15.53;;
4911;SDS011;2471;47.056;8.350;2022-07-24T08:03:50;22.60;;;16.60;;
4911;SDS011;2471;47.056;8.350;2022-07-24T08:06:16;16.53;;;14.83;;
4911;SDS011;2471;47.056;8.350;2022-07-24T08:08:42;16.33;;;14.60;;
4911;SDS011;2471;47.056;8.350;2022-07-24T08:11:08;17.27;;;15.50;;
4911;SDS011;2471;47.056;8.350;2022-07-24T08:13:34;17.63;;;14.07;;
4911;SDS011;2471;47.056;8.350;2022-07-24T08:16:00;15.20;;;13.50;;
4911;SDS011;2471;47.056;8.350;2022-07-24T08:18:26;16.27;;;14.57;;
4911;SDS011;2471;47.056;8.350;2022-07-24T08:20:52;14.87;;;13.53;;
4911;SDS011;2471;47.056;8.350;2022-07-24T08:23:18;18.37;;;15.30;;
4911;SDS011;2471;47.056;8.350;2022-07-24T08:25:44;17.63;;;15.47;;
4911;SDS011;2471;47.056;8.350;2022-07-24T08:28:10;14.13;;;12.73;;
4911;SDS011;2471;47.056;8.350;2022-07-24T08:30:36;14.00;;;12.67;;
4911;SDS011;2471;47.056;8.350;2022-07-24T08:33:02;14.30;;;12.80;;
4911;SDS011;2471;47.056;8.350;2022-07-24T08:35:28;15.23;;;13.73;;
4911;SDS011;2471;47.056;8.350;2022-07-24T08:37:54;13.20;;;12.07;;
4911;SDS011;2471;47.056;8.350;2022-07-24T08:40:20;14.47;;;12.97;;
4911;SDS011;2471;47.056;8.350;2022-07-24T08:42:47;15.80;;;14.20;;
4911;SDS011;2471;47.056;8.350;2022-07-24T08:45:13;15.30;;;11.57;;
4911;SDS011;2471;47.056;8.350;2022-07-24T08:47:41;16.53;;;14.17;;
4911;SDS011;2471;47.056;8.350;2022-07-24T08:50:07;15.00;;;13.50;;
4911;SDS011;2471;47.056;8.350;2022-07-24T08:52:33;14.00;;;12.60;;
4911;SDS011;2471;47.056;8.350;2022-07-24T08:55:03;15.20;;;13.77;;
4911;SDS011;2471;47.056;8.350;2022-07-24T08:57:29;21.07;;;16.53;;
4911;SDS011;2471;47.056;8.350;2022-07-24T08:59:56;15.38;;;13.32;;
4911;SDS011;2471;47.056;8.350;2022-07-24T09:02:22;11.98;;;10.75;;
4911;SDS011;2471;47.056;8.350;2022-07-24T09:04:48;13.70;;;12.40;;
4911;SDS011;2471;47.056;8.350;2022-07-24T09:09:42;16.25;;;14.55;;
4911;SDS011;2471;47.056;8.350;2022-07-24T09:12:10;16.90;;;15.50;;
4911;SDS011;2471;47.056;8.350;2022-07-24T09:14:38;21.05;;;18.75;;
4911;SDS011;2471;47.056;8.350;2022-07-24T09:17:05;23.80;;;21.13;;
4911;SDS011;2471;47.056;8.350;2022-07-24T09:19:45;15.10;;;13.50;;
4911;SDS011;2471;47.056;8.350;2022-07-24T09:22:16;15.55;;;13.85;;
4911;SDS011;2471;47.056;8.350;2022-07-24T09:24:42;17.10;;;15.48;;
4911;SDS011;2471;47.056;8.350;2022-07-24T09:27:13;19.83;;;15.63;;
4911;SDS011;2471;47.056;8.350;2022-07-24T09:29:39;14.48;;;13.07;;
4911;SDS011;2471;47.056;8.350;2022-07-24T09:32:05;15.35;;;13.73;;
4911;SDS011;2471;47.056;8.350;2022-07-24T09:34:37;14.50;;;13.10;;
4911;SDS011;2471;47.056;8.350;2022-07-24T09:37:04;16.37;;;13.73;;
4911;SDS011;2471;47.056;8.350;2022-07-24T09:39:34;14.77;;;12.87;;
4911;SDS011;2471;47.056;8.350;2022-07-24T09:42:01;14.70;;;11.80;;
4911;SDS011;2471;47.056;8.350;2022-07-24T09:44:28;13.47;;;12.23;;
4911;SDS011;2471;47.056;8.350;2022-07-24T09:46:56;24.53;;;22.20;;
4911;SDS011;2471;47.056;8.350;2022-07-24T09:49:22;14.30;;;11.13;;
4911;SDS011;2471;47.056;8.350;2022-07-24T09:52:10;14.43;;;13.13;;
4911;SDS011;2471;47.056;8.350;2022-07-24T09:54:41;15.70;;;14.10;;
4911;SDS011;2471;47.056;8.350;2022-07-24T10:00:07;16.17;;;14.27;;
4911;SDS011;2471;47.056;8.350;2022-07-24T10:02:33;16.93;;;15.33;;
4911;SDS011;2471;47.056;8.350;2022-07-24T10:05:00;20.07;;;16.10;;
4911;SDS011;2471;47.056;8.350;2022-07-24T10:07:26;25.07;;;19.40;;
4911;SDS011;2471;47.056;8.350;2022-07-24T10:09:54;27.83;;;15.43;;
4911;SDS011;2471;47.056;8.350;2022-07-24T10:12:27;24.97;;;16.70;;
4911;SDS011;2471;47.056;8.350;2022-07-24T10:14:54;18.80;;;15.90;;
4911;SDS011;2471;47.056;8.350;2022-07-24T10:17:51;26.23;;;21.63;;
4911;SDS011;2471;47.056;8.350;2022-07-24T10:20:10;16.90;;;15.13;;
4911;SDS011;2471;47.056;8.350;2022-07-24T10:22:40;20.57;;;16.47;;
4911;SDS011;2471;47.056;8.350;2022-07-24T10:25:13;21.43;;;19.33;;
4911;SDS011;2471;47.056;8.350;2022-07-24T10:27:42;17.90;;;14.13;;
4911;SDS011;2471;47.056;8.350;2022-07-24T10:30:10;16.77;;;15.00;;
4911;SDS011;2471;47.056;8.350;2022-07-24T10:32:37;16.83;;;15.03;;
4911;SDS011;2471;47.056;8.350;2022-07-24T10:35:12;17.67;;;15.70;;
4911;SDS011;2471;47.056;8.350;2022-07-24T10:37:45;21.93;;;19.60;;
4911;SDS011;2471;47.056;8.350;2022-07-24T10:40:28;14.77;;;13.27;;
4911;SDS011;2471;47.056;8.350;2022-07-24T10:45:34;25.00;;;22.40;;
4911;SDS011;2471;47.056;8.350;2022-07-24T10:56:21;16.80;;;14.23;;
4911;SDS011;2471;47.056;8.350;2022-07-24T10:58:51;17.37;;;15.57;;
4911;SDS011;2471;47.056;8.350;2022-07-24T11:01:27;24.60;;;17.60;;
4911;SDS011;2471;47.056;8.350;2022-07-24T11:03:53;15.50;;;13.80;;
4911;SDS011;2471;47.056;8.350;2022-07-24T11:06:36;23.33;;;19.80;;
4911;SDS011;2471;47.056;8.350;2022-07-24T11:09:03;20.07;;;17.93;;
4911;SDS011;2471;47.056;8.350;2022-07-24T11:11:29;15.93;;;14.30;;
4911;SDS011;2471;47.056;8.350;2022-07-24T11:13:55;18.50;;;14.93;;
4911;SDS011;2471;47.056;8.350;2022-07-24T11:16:30;17.60;;;15.40;;
4911;SDS011;2471;47.056;8.350;2022-07-24T11:21:33;18.33;;;15.40;;
4911;SDS011;2471;47.056;8.350;2022-07-24T11:29:17;16.57;;;14.90;;
4911;SDS011;2471;47.056;8.350;2022-07-24T11:31:44;21.63;;;19.23;;
4911;SDS011;2471;47.056;8.350;2022-07-24T11:34:10;17.70;;;16.00;;
4911;SDS011;2471;47.056;8.350;2022-07-24T11:36:36;30.43;;;27.23;;
4911;SDS011;2471;47.056;8.350;2022-07-24T11:39:05;28.50;;;17.00;;
4911;SDS011;2471;47.056;8.350;2022-07-24T11:42:04;29.33;;;17.70;;
4911;SDS011;2471;47.056;8.350;2022-07-24T11:44:27;17.20;;;15.40;;
4911;SDS011;2471;47.056;8.350;2022-07-24T11:46:54;28.00;;;21.80;;
4911;SDS011;2471;47.056;8.350;2022-07-24T11:49:22;17.87;;;15.90;;
4911;SDS011;2471;47.056;8.350;2022-07-24T11:51:49;19.60;;;17.13;;
4911;SDS011;2471;47.056;8.350;2022-07-24T11:54:26;34.37;;;27.43;;
4911;SDS011;2471;47.056;8.350;2022-07-24T11:56:53;64.40;;;49.27;;
4911;SDS011;2471;47.056;8.350;2022-07-24T11:59:26;25.10;;;16.13;;
4911;SDS011;2471;47.056;8.350;2022-07-24T12:02:03;28.80;;;23.80;;
4911;SDS011;2471;47.056;8.350;2022-07-24T12:04:29;16.87;;;15.20;;
4911;SDS011;2471;47.056;8.350;2022-07-24T12:06:55;17.03;;;15.37;;
4911;SDS011;2471;47.056;8.350;2022-07-24T12:09:21;16.03;;;14.33;;
4911;SDS011;2471;47.056;8.350;2022-07-24T12:11:47;25.70;;;21.87;;
4911;SDS011;2471;47.056;8.350;2022-07-24T12:14:17;23.33;;;13.60;;
4911;SDS011;2471;47.056;8.350;2022-07-24T12:16:44;15.53;;;13.77;;
4911;SDS011;2471;47.056;8.350;2022-07-24T12:19:17;21.07;;;14.17;;
4911;SDS011;2471;47.056;8.350;2022-07-24T12:21:44;17.00;;;13.60;;
4911;SDS011;2471;47.056;8.350;2022-07-24T12:24:10;14.40;;;12.90;;
4911;SDS011;2471;47.056;8.350;2022-07-24T12:29:15;18.87;;;16.83;;
4911;SDS011;2471;47.056;8.350;2022-07-24T12:31:42;21.80;;;17.70;;
4911;SDS011;2471;47.056;8.350;2022-07-24T12:34:08;34.67;;;27.90;;
4911;SDS011;2471;47.056;8.350;2022-07-24T12:36:34;46.67;;;37.60;;
4911;SDS011;2471;47.056;8.350;2022-07-24T12:39:02;17.87;;;15.97;;
4911;SDS011;2471;47.056;8.350;2022-07-24T12:41:29;20.63;;;17.30;;
4911;SDS011;2471;47.056;8.350;2022-07-24T12:46:32;20.00;;;17.73;;
4911;SDS011;2471;47.056;8.350;2022-07-24T12:49:02;30.87;;;21.27;;
4911;SDS011;2471;47.056;8.350;2022-07-24T12:54:17;14.00;;;12.50;;
4911;SDS011;2471;47.056;8.350;2022-07-24T12:56:43;21.77;;;19.43;;
4911;SDS011;2471;47.056;8.350;2022-07-24T12:59:09;22.67;;;19.90;;
4911;SDS011;2471;47.056;8.350;2022-07-24T13:01:44;14.20;;;12.53;;
4911;SDS011;2471;47.056;8.350;2022-07-24T13:04:10;13.80;;;12.20;;
4911;SDS011;2471;47.056;8.350;2022-07-24T13:06:40;15.07;;;12.07;;
4911;SDS011;2471;47.056;8.350;2022-07-24T13:09:06;14.97;;;13.40;;
4911;SDS011;2471;47.056;8.350;2022-07-24T13:11:33;14.67;;;12.70;;
4911;SDS011;2471;47.056;8.350;2022-07-24T13:13:59;19.97;;;12.80;;
4911;SDS011;2471;47.056;8.350;2022-07-24T13:16:26;13.70;;;10.47;;
4911;SDS011;2471;47.056;8.350;2022-07-24T13:18:53;14.77;;;12.93;;
4911;SDS011;2471;47.056;8.350;2022-07-24T13:21:18;16.10;;;13.20;;
4911;SDS011;2471;47.056;8.350;2022-07-24T13:23:45;11.73;;;10.63;;
4911;SDS011;2471;47.056;8.350;2022-07-24T13:26:11;16.83;;;15.17;;
4911;SDS011;2471;47.056;8.350;2022-07-24T13:28:37;14.57;;;12.20;;
4911;SDS011;2471;47.056;8.350;2022-07-24T13:31:03;15.27;;;13.70;;
4911;SDS011;2471;47.056;8.350;2022-07-24T13:33:30;18.00;;;13.17;;
4911;SDS011;2471;47.056;8.350;2022-07-24T13:35:56;17.03;;;11.97;;
4911;SDS011;2471;47.056;8.350;2022-07-24T13:38:22;13.10;;;11.80;;
4911;SDS011;2471;47.056;8.350;2022-07-24T13:40:48;13.40;;;12.07;;
4911;SDS011;2471;47.056;8.350;2022-07-24T13:43:14;13.17;;;11.97;;
4911;SDS011;2471;47.056;8.350;2022-07-24T13:45:40;16.03;;;12.47;;
4911;SDS011;2471;47.056;8.350;2022-07-24T13:48:06;13.70;;;12.30;;
4911;SDS011;2471;47.056;8.350;2022-07-24T13:50:35;13.73;;;12.40;;
4911;SDS011;2471;47.056;8.350;2022-07-24T13:53:01;14.27;;;12.83;;
4911;SDS011;2471;47.056;8.350;2022-07-24T13:55:27;18.40;;;14.67;;
4911;SDS011;2471;47.056;8.350;2022-07-24T13:57:53;15.33;;;13.07;;
4911;SDS011;2471;47.056;8.350;2022-07-24T14:00:19;11.97;;;10.87;;
4911;SDS011;2471;47.056;8.350;2022-07-24T14:02:45;12.23;;;10.93;;
4911;SDS011;2471;47.056;8.350;2022-07-24T14:05:10;11.97;;;10.87;;
4911;SDS011;2471;47.056;8.350;2022-07-24T14:07:36;13.17;;;11.87;;
4911;SDS011;2471;47.056;8.350;2022-07-24T14:10:02;13.30;;;12.10;;
4911;SDS011;2471;47.056;8.350;2022-07-24T14:12:28;13.50;;;12.10;;
4911;SDS011;2471;47.056;8.350;2022-07-24T14:14:54;22.97;;;19.10;;
4911;SDS011;2471;47.056;8.350;2022-07-24T14:17:20;26.43;;;17.70;;
4911;SDS011;2471;47.056;8.350;2022-07-24T14:19:46;17.93;;;15.90;;
4911;SDS011;2471;47.056;8.350;2022-07-24T14:22:12;31.07;;;26.97;;
4911;SDS011;2471;47.056;8.350;2022-07-24T14:24:38;57.03;;;46.53;;
4911;SDS011;2471;47.056;8.350;2022-07-24T14:27:04;22.73;;;19.67;;
4911;SDS011;2471;47.056;8.350;2022-07-24T14:29:30;16.27;;;14.60;;
4911;SDS011;2471;47.056;8.350;2022-07-24T14:31:56;24.17;;;18.33;;
4911;SDS011;2471;47.056;8.350;2022-07-24T14:34:22;13.40;;;11.73;;
4911;SDS011;2471;47.056;8.350;2022-07-24T14:36:48;13.27;;;11.87;;
4911;SDS011;2471;47.056;8.350;2022-07-24T14:39:14;12.43;;;11.20;;
4911;SDS011;2471;47.056;8.350;2022-07-24T14:41:40;14.07;;;12.17;;
4911;SDS011;2471;47.056;8.350;2022-07-24T14:44:06;11.27;;;10.10;;
4911;SDS011;2471;47.056;8.350;2022-07-24T14:46:32;12.27;;;11.00;;
4911;SDS011;2471;47.056;8.350;2022-07-24T14:48:58;12.83;;;11.50;;
4911;SDS011;2471;47.056;8.350;2022-07-24T14:51:24;12.80;;;11.60;;
4911;SDS011;2471;47.056;8.350;2022-07-24T14:53:50;11.73;;;10.53;;
4911;SDS011;2471;47.056;8.350;2022-07-24T14:56:16;17.83;;;11.17;;
4911;SDS011;2471;47.056;8.350;2022-07-24T14:58:42;12.70;;;11.37;;
4911;SDS011;2471;47.056;8.350;2022-07-24T15:01:08;15.33;;;13.47;;
4911;SDS011;2471;47.056;8.350;2022-07-24T15:03:34;16.20;;;14.33;;
4911;SDS011;2471;47.056;8.350;2022-07-24T15:06:00;14.40;;;12.27;;
4911;SDS011;2471;47.056;8.350;2022-07-24T15:08:26;12.43;;;11.20;;
4911;SDS011;2471;47.056;8.350;2022-07-24T15:10:52;12.00;;;10.80;;
4911;SDS011;2471;47.056;8.350;2022-07-24T15:13:18;14.00;;;10.60;;
4911;SDS011;2471;47.056;8.350;2022-07-24T15:15:44;14.17;;;12.17;;
4911;SDS011;2471;47.056;8.350;2022-07-24T15:18:10;14.43;;;11.33;;